sensor_id;sensor_type;location;lat;lon;timestamp;P1;durP1;ratioP1;P2;durP2;ratioP2
25091;SDS011;13082;52.374;4.946;2022-07-23T00:00:45;1.58;;;1.35;;
25091;SDS011;13082;52.374;4.946;2022-07-23T00:03:12;1.63;;;1.00;;
25091;SDS011;13082;52.374;4.946;2022-07-23T00:05:38;1.20;;;0.80;;
25091;SDS011;13082;52.374;4.946;2022-07-23T00:08:04;1.10;;;0.80;;
25091;SDS011;13082;52.374;4.946;2022-07-23T00:10:31;2.30;;;1.20;;
25091;SDS011;13082;52.374;4.946;2022-07-23T00:12:57;1.45;;;1.20;;
25091;SDS011;13082;52.374;4.946;2022-07-23T00:15:22;2.90;;;1.10;;
25091;SDS011;13082;52.374;4.946;2022-07-23T00:17:48;1.90;;;0.93;;
25091;SDS011;13082;52.374;4.946;2022-07-23T00:20:14;2.93;;;1.17;;
25091;SDS011;13082;52.374;4.946;2022-07-23T00:22:49;7.13;;;1.15;;
25091;SDS011;13082;52.374;4.946;2022-07-23T00:25:16;1.10;;;1.00;;
25091;SDS011;13082;52.374;4.946;2022-07-23T00:27:41;1.13;;;1.02;;
25091;SDS011;13082;52.374;4.946;2022-07-23T00:30:08;1.58;;;1.10;;
25091;SDS011;13082;52.374;4.946;2022-07-23T00:32:49;4.50;;;1.10;;
25091;SDS011;13082;52.374;4.946;2022-07-23T00:35:19;1.35;;;1.10;;
25091;SDS011;13082;52.374;4.946;2022-07-23T00:37:45;2.47;;;1.27;;
25091;SDS011;13082;52.374;4.946;2022-07-23T00:40:11;2.57;;;1.07;;
25091;SDS011;13082;52.374;4.946;2022-07-23T00:42:37;0.80;;;0.77;;
25091;SDS011;13082;52.374;4.946;2022-07-23T00:45:04;2.93;;;1.10;;
25091;SDS011;13082;52.374;4.946;2022-07-23T00:47:29;1.85;;;1.58;;
25091;SDS011;13082;52.374;4.946;2022-07-23T00:49:55;1.97;;;1.20;;
25091;SDS011;13082;52.374;4.946;2022-07-23T00:52:21;2.40;;;1.47;;
25091;SDS011;13082;52.374;4.946;2022-07-23T00:54:46;4.90;;;1.10;;
25091;SDS011;13082;52.374;4.946;2022-07-23T00:57:13;2.70;;;1.30;;
25091;SDS011;13082;52.374;4.946;2022-07-23T00:59:39;1.70;;;1.03;;
25091;SDS011;13082;52.374;4.946;2022-07-23T01:02:05;1.13;;;1.03;;
25091;SDS011;13082;52.374;4.946;2022-07-23T01:04:31;1.10;;;1.00;;
25091;SDS011;13082;52.374;4.946;2022-07-23T01:06:57;1.37;;;1.27;;
25091;SDS011;13082;52.374;4.946;2022-07-23T01:09:23;3.70;;;1.10;;
25091;SDS011;13082;52.374;4.946;2022-07-23T01:11:50;1.33;;;0.65;;
25091;SDS011;13082;52.374;4.946;2022-07-23T01:14:17;1.33;;;1.03;;
25091;SDS011;13082;52.374;4.946;2022-07-23T01:16:44;2.40;;;1.00;;
25091;SDS011;13082;52.374;4.946;2022-07-23T01:19:11;1.77;;;1.20;;
25091;SDS011;13082;52.374;4.946;2022-07-23T01:21:39;1.87;;;1.30;;
25091;SDS011;13082;52.374;4.946;2022-07-23T01:24:09;2.00;;;1.00;;
25091;SDS011;13082;52.374;4.946;2022-07-23T01:26:35;1.43;;;0.97;;
25091;SDS011;13082;52.374;4.946;2022-07-23T01:29:01;3.63;;;1.10;;
25091;SDS011;13082;52.374;4.946;2022-07-23T01:31:28;1.80;;;1.30;;
25091;SDS011;13082;52.374;4.946;2022-07-23T01:33:54;2.97;;;1.17;;
25091;SDS011;13082;52.374;4.946;2022-07-23T01:36:20;2.30;;;1.00;;
25091;SDS011;13082;52.374;4.946;2022-07-23T01:38:46;1.37;;;0.93;;
25091;SDS011;13082;52.374;4.946;2022-07-23T01:41:11;4.80;;;1.07;;
25091;SDS011;13082;52.374;4.946;2022-07-23T01:43:37;1.25;;;0.98;;
25091;SDS011;13082;52.374;4.946;2022-07-23T01:46:02;1.40;;;1.30;;
25091;SDS011;13082;52.374;4.946;2022-07-23T01:48:28;1.80;;;1.37;;
25091;SDS011;13082;52.374;4.946;2022-07-23T01:50:54;1.13;;;1.00;;
25091;SDS011;13082;52.374;4.946;2022-07-23T01:53:19;1.73;;;0.80;;
25091;SDS011;13082;52.374;4.946;2022-07-23T01:55:45;1.37;;;1.17;;
25091;SDS011;13082;52.374;4.946;2022-07-23T01:58:10;2.13;;;1.10;;
25091;SDS011;13082;52.374;4.946;2022-07-23T02:00:36;1.60;;;1.13;;
25091;SDS011;13082;52.374;4.946;2022-07-23T02:03:02;1.83;;;1.13;;
25091;SDS011;13082;52.374;4.946;2022-07-23T02:05:27;1.37;;;1.20;;
25091;SDS011;13082;52.374;4.946;2022-07-23T02:07:53;1.20;;;1.10;;
25091;SDS011;13082;52.374;4.946;2022-07-23T02:10:20;2.80;;;1.03;;
25091;SDS011;13082;52.374;4.946;2022-07-23T02:12:46;2.53;;;1.40;;
25091;SDS011;13082;52.374;4.946;2022-07-23T02:15:12;1.93;;;1.40;;
25091;SDS011;13082;52.374;4.946;2022-07-23T02:17:38;2.50;;;1.10;;
25091;SDS011;13082;52.374;4.946;2022-07-23T02:20:04;1.33;;;1.20;;
25091;SDS011;13082;52.374;4.946;2022-07-23T02:22:30;2.80;;;1.20;;
25091;SDS011;13082;52.374;4.946;2022-07-23T02:24:56;3.90;;;1.40;;
25091;SDS011;13082;52.374;4.946;2022-07-23T02:27:21;1.13;;;1.03;;
25091;SDS011;13082;52.374;4.946;2022-07-23T02:29:48;1.83;;;1.10;;
25091;SDS011;13082;52.374;4.946;2022-07-23T02:32:14;2.17;;;1.37;;
25091;SDS011;13082;52.374;4.946;2022-07-23T02:34:39;3.43;;;1.13;;
25091;SDS011;13082;52.374;4.946;2022-07-23T02:37:05;1.90;;;1.40;;
25091;SDS011;13082;52.374;4.946;2022-07-23T02:39:31;2.10;;;1.80;;
25091;SDS011;13082;52.374;4.946;2022-07-23T02:41:56;5.00;;;1.47;;
25091;SDS011;13082;52.374;4.946;2022-07-23T02:44:22;1.33;;;1.17;;
25091;SDS011;13082;52.374;4.946;2022-07-23T02:46:47;1.67;;;0.90;;
25091;SDS011;13082;52.374;4.946;2022-07-23T02:49:13;3.00;;;1.27;;
25091;SDS011;13082;52.374;4.946;2022-07-23T02:51:38;3.00;;;1.20;;
25091;SDS011;13082;52.374;4.946;2022-07-23T02:54:04;2.57;;;1.50;;
25091;SDS011;13082;52.374;4.946;2022-07-23T02:56:30;4.03;;;2.37;;
25091;SDS011;13082;52.374;4.946;2022-07-23T02:58:55;1.83;;;1.70;;
25091;SDS011;13082;52.374;4.946;2022-07-23T03:01:21;2.77;;;2.40;;
25091;SDS011;13082;52.374;4.946;2022-07-23T03:03:47;4.90;;;2.27;;
25091;SDS011;13082;52.374;4.946;2022-07-23T03:06:12;3.80;;;1.97;;
25091;SDS011;13082;52.374;4.946;2022-07-23T03:08:38;1.53;;;1.43;;
25091;SDS011;13082;52.374;4.946;2022-07-23T03:11:04;3.47;;;2.20;;
25091;SDS011;13082;52.374;4.946;2022-07-23T03:13:35;4.17;;;2.03;;
25091;SDS011;13082;52.374;4.946;2022-07-23T03:16:04;3.87;;;1.23;;
25091;SDS011;13082;52.374;4.946;2022-07-23T03:18:30;1.40;;;1.20;;
25091;SDS011;13082;52.374;4.946;2022-07-23T03:20:56;2.37;;;1.20;;
25091;SDS011;13082;52.374;4.946;2022-07-23T03:23:21;2.17;;;1.40;;
25091;SDS011;13082;52.374;4.946;2022-07-23T03:25:47;2.07;;;1.20;;
25091;SDS011;13082;52.374;4.946;2022-07-23T03:28:13;1.40;;;1.30;;
25091;SDS011;13082;52.374;4.946;2022-07-23T03:30:43;2.27;;;1.03;;
25091;SDS011;13082;52.374;4.946;2022-07-23T03:33:11;3.60;;;1.20;;
25091;SDS011;13082;52.374;4.946;2022-07-23T03:35:37;0.90;;;0.87;;
25091;SDS011;13082;52.374;4.946;2022-07-23T03:38:03;2.87;;;1.17;;
25091;SDS011;13082;52.374;4.946;2022-07-23T03:40:28;3.90;;;1.10;;
25091;SDS011;13082;52.374;4.946;2022-07-23T03:42:54;2.10;;;1.90;;
25091;SDS011;13082;52.374;4.946;2022-07-23T03:45:19;1.90;;;1.20;;
25091;SDS011;13082;52.374;4.946;2022-07-23T03:47:45;0.93;;;0.90;;
25091;SDS011;13082;52.374;4.946;2022-07-23T03:50:10;1.87;;;1.37;;
25091;SDS011;13082;52.374;4.946;2022-07-23T03:52:36;1.20;;;1.00;;
25091;SDS011;13082;52.374;4.946;2022-07-23T03:55:02;2.53;;;0.97;;
25091;SDS011;13082;52.374;4.946;2022-07-23T03:57:28;2.70;;;1.30;;
25091;SDS011;13082;52.374;4.946;2022-07-23T03:59:54;1.97;;;1.10;;
25091;SDS011;13082;52.374;4.946;2022-07-23T04:02:20;1.40;;;0.93;;
25091;SDS011;13082;52.374;4.946;2022-07-23T04:04:45;2.03;;;1.20;;
25091;SDS011;13082;52.374;4.946;2022-07-23T04:07:11;2.10;;;0.90;;
25091;SDS011;13082;52.374;4.946;2022-07-23T04:09:37;1.57;;;1.20;;
25091;SDS011;13082;52.374;4.946;2022-07-23T04:12:05;0.80;;;0.80;;
25091;SDS011;13082;52.374;4.946;2022-07-23T04:14:31;1.00;;;0.90;;
25091;SDS011;13082;52.374;4.946;2022-07-23T04:16:57;2.50;;;1.00;;
25091;SDS011;13082;52.374;4.946;2022-07-23T04:19:22;4.03;;;1.07;;
25091;SDS011;13082;52.374;4.946;2022-07-23T04:21:48;2.57;;;1.10;;
25091;SDS011;13082;52.374;4.946;2022-07-23T04:24:14;2.50;;;1.10;;
25091;SDS011;13082;52.374;4.946;2022-07-23T04:26:39;2.93;;;1.27;;
25091;SDS011;13082;52.374;4.946;2022-07-23T04:29:05;2.27;;;1.70;;
25091;SDS011;13082;52.374;4.946;2022-07-23T04:31:30;6.17;;;1.60;;
25091;SDS011;13082;52.374;4.946;2022-07-23T04:33:56;2.30;;;1.30;;
25091;SDS011;13082;52.374;4.946;2022-07-23T04:36:21;1.30;;;1.17;;
25091;SDS011;13082;52.374;4.946;2022-07-23T04:38:47;2.23;;;1.40;;
25091;SDS011;13082;52.374;4.946;2022-07-23T04:41:12;3.90;;;1.83;;
25091;SDS011;13082;52.374;4.946;2022-07-23T04:43:38;1.52;;;1.42;;
25091;SDS011;13082;52.374;4.946;2022-07-23T04:46:04;3.07;;;1.40;;
25091;SDS011;13082;52.374;4.946;2022-07-23T04:48:29;3.20;;;1.37;;
25091;SDS011;13082;52.374;4.946;2022-07-23T04:50:55;2.50;;;1.60;;
25091;SDS011;13082;52.374;4.946;2022-07-23T04:53:20;2.40;;;2.07;;
25091;SDS011;13082;52.374;4.946;2022-07-23T04:55:46;3.13;;;1.63;;
25091;SDS011;13082;52.374;4.946;2022-07-23T04:58:12;3.93;;;1.73;;
25091;SDS011;13082;52.374;4.946;2022-07-23T05:00:37;2.70;;;1.13;;
25091;SDS011;13082;52.374;4.946;2022-07-23T05:03:03;1.83;;;1.20;;
25091;SDS011;13082;52.374;4.946;2022-07-23T05:05:28;2.17;;;1.00;;
25091;SDS011;13082;52.374;4.946;2022-07-23T05:07:54;2.60;;;0.90;;
25091;SDS011;13082;52.374;4.946;2022-07-23T05:10:19;1.70;;;0.83;;
25091;SDS011;13082;52.374;4.946;2022-07-23T05:12:45;1.30;;;0.87;;
25091;SDS011;13082;52.374;4.946;2022-07-23T05:15:11;1.43;;;1.10;;
25091;SDS011;13082;52.374;4.946;2022-07-23T05:17:36;4.60;;;1.10;;
25091;SDS011;13082;52.374;4.946;2022-07-23T05:20:02;0.73;;;0.70;;
25091;SDS011;13082;52.374;4.946;2022-07-23T05:22:28;1.60;;;1.23;;
25091;SDS011;13082;52.374;4.946;2022-07-23T05:24:54;1.67;;;0.90;;
25091;SDS011;13082;52.374;4.946;2022-07-23T05:27:19;1.80;;;1.10;;
25091;SDS011;13082;52.374;4.946;2022-07-23T05:29:45;1.47;;;0.93;;
25091;SDS011;13082;52.374;4.946;2022-07-23T05:32:10;2.53;;;1.23;;
25091;SDS011;13082;52.374;4.946;2022-07-23T05:34:36;1.30;;;0.77;;
25091;SDS011;13082;52.374;4.946;2022-07-23T05:37:02;3.43;;;0.80;;
25091;SDS011;13082;52.374;4.946;2022-07-23T05:39:27;1.80;;;0.90;;
25091;SDS011;13082;52.374;4.946;2022-07-23T05:41:53;1.10;;;0.90;;
25091;SDS011;13082;52.374;4.946;2022-07-23T05:44:18;2.90;;;0.70;;
25091;SDS011;13082;52.374;4.946;2022-07-23T05:46:45;1.50;;;0.80;;
25091;SDS011;13082;52.374;4.946;2022-07-23T05:49:11;3.40;;;0.93;;
25091;SDS011;13082;52.374;4.946;2022-07-23T05:51:36;1.10;;;1.00;;
25091;SDS011;13082;52.374;4.946;2022-07-23T05:54:02;2.83;;;1.00;;
25091;SDS011;13082;52.374;4.946;2022-07-23T05:56:28;1.00;;;0.90;;
25091;SDS011;13082;52.374;4.946;2022-07-23T05:58:54;0.60;;;0.60;;
25091;SDS011;13082;52.374;4.946;2022-07-23T06:01:19;1.85;;;0.90;;
25091;SDS011;13082;52.374;4.946;2022-07-23T06:03:45;0.80;;;0.80;;
25091;SDS011;13082;52.374;4.946;2022-07-23T06:06:10;1.00;;;0.83;;
25091;SDS011;13082;52.374;4.946;2022-07-23T06:08:36;0.70;;;0.70;;
25091;SDS011;13082;52.374;4.946;2022-07-23T06:11:01;1.63;;;0.90;;
25091;SDS011;13082;52.374;4.946;2022-07-23T06:13:27;2.78;;;1.00;;
25091;SDS011;13082;52.374;4.946;2022-07-23T06:15:53;1.02;;;0.82;;
25091;SDS011;13082;52.374;4.946;2022-07-23T06:18:19;1.95;;;1.00;;
25091;SDS011;13082;52.374;4.946;2022-07-23T06:20:44;1.48;;;0.82;;
25091;SDS011;13082;52.374;4.946;2022-07-23T06:23:10;0.98;;;0.90;;
25091;SDS011;13082;52.374;4.946;2022-07-23T06:25:37;1.63;;;0.70;;
25091;SDS011;13082;52.374;4.946;2022-07-23T06:28:03;1.10;;;0.98;;
25091;SDS011;13082;52.374;4.946;2022-07-23T06:30:28;3.65;;;1.10;;
25091;SDS011;13082;52.374;4.946;2022-07-23T06:32:54;2.47;;;1.73;;
25091;SDS011;13082;52.374;4.946;2022-07-23T06:35:20;2.23;;;1.30;;
25091;SDS011;13082;52.374;4.946;2022-07-23T06:37:45;1.33;;;1.23;;
25091;SDS011;13082;52.374;4.946;2022-07-23T06:40:11;1.97;;;1.43;;
25091;SDS011;13082;52.374;4.946;2022-07-23T06:42:37;3.80;;;1.87;;
25091;SDS011;13082;52.374;4.946;2022-07-23T06:45:04;1.20;;;0.98;;
25091;SDS011;13082;52.374;4.946;2022-07-23T06:47:31;1.30;;;0.93;;
25091;SDS011;13082;52.374;4.946;2022-07-23T06:49:56;1.87;;;1.00;;
25091;SDS011;13082;52.374;4.946;2022-07-23T06:52:22;1.85;;;1.10;;
25091;SDS011;13082;52.374;4.946;2022-07-23T06:54:48;2.97;;;1.07;;
25091;SDS011;13082;52.374;4.946;2022-07-23T06:57:14;1.60;;;1.13;;
25091;SDS011;13082;52.374;4.946;2022-07-23T06:59:40;3.72;;;0.90;;
25091;SDS011;13082;52.374;4.946;2022-07-23T07:02:06;2.65;;;1.63;;
25091;SDS011;13082;52.374;4.946;2022-07-23T07:04:32;1.83;;;1.10;;
25091;SDS011;13082;52.374;4.946;2022-07-23T07:06:58;1.43;;;1.10;;
25091;SDS011;13082;52.374;4.946;2022-07-23T07:09:24;1.20;;;1.10;;
25091;SDS011;13082;52.374;4.946;2022-07-23T07:11:50;1.30;;;1.00;;
25091;SDS011;13082;52.374;4.946;2022-07-23T07:14:15;1.00;;;0.90;;
25091;SDS011;13082;52.374;4.946;2022-07-23T07:16:41;1.23;;;0.87;;
25091;SDS011;13082;52.374;4.946;2022-07-23T07:19:06;2.63;;;0.80;;
25091;SDS011;13082;52.374;4.946;2022-07-23T07:21:32;1.48;;;0.85;;
25091;SDS011;13082;52.374;4.946;2022-07-23T07:23:58;1.13;;;0.80;;
25091;SDS011;13082;52.374;4.946;2022-07-23T07:26:23;1.90;;;0.80;;
25091;SDS011;13082;52.374;4.946;2022-07-23T07:28:49;0.70;;;0.70;;
25091;SDS011;13082;52.374;4.946;2022-07-23T07:31:14;3.03;;;0.97;;
25091;SDS011;13082;52.374;4.946;2022-07-23T07:33:40;2.78;;;0.80;;
25091;SDS011;13082;52.374;4.946;2022-07-23T07:36:06;1.00;;;0.75;;
25091;SDS011;13082;52.374;4.946;2022-07-23T07:38:32;2.15;;;1.00;;
25091;SDS011;13082;52.374;4.946;2022-07-23T07:40:58;0.98;;;0.88;;
25091;SDS011;13082;52.374;4.946;2022-07-23T07:43:23;1.58;;;0.80;;
25091;SDS011;13082;52.374;4.946;2022-07-23T07:45:49;2.05;;;0.88;;
25091;SDS011;13082;52.374;4.946;2022-07-23T07:48:17;1.38;;;0.75;;
25091;SDS011;13082;52.374;4.946;2022-07-23T07:50:43;0.80;;;0.80;;
25091;SDS011;13082;52.374;4.946;2022-07-23T07:53:09;1.15;;;0.85;;
25091;SDS011;13082;52.374;4.946;2022-07-23T07:55:34;0.77;;;0.77;;
25091;SDS011;13082;52.374;4.946;2022-07-23T07:58:00;1.13;;;0.90;;
25091;SDS011;13082;52.374;4.946;2022-07-23T08:00:26;2.88;;;1.08;;
25091;SDS011;13082;52.374;4.946;2022-07-23T08:02:52;1.00;;;0.90;;
25091;SDS011;13082;52.374;4.946;2022-07-23T08:05:20;1.13;;;0.68;;
25091;SDS011;13082;52.374;4.946;2022-07-23T08:07:47;3.83;;;0.90;;
25091;SDS011;13082;52.374;4.946;2022-07-23T08:10:13;0.85;;;0.73;;
25091;SDS011;13082;52.374;4.946;2022-07-23T08:12:40;1.95;;;0.88;;
25091;SDS011;13082;52.374;4.946;2022-07-23T08:15:06;2.10;;;0.65;;
25091;SDS011;13082;52.374;4.946;2022-07-23T08:17:32;1.90;;;0.70;;
25091;SDS011;13082;52.374;4.946;2022-07-23T08:19:58;1.20;;;0.95;;
25091;SDS011;13082;52.374;4.946;2022-07-23T08:22:24;2.22;;;0.90;;
25091;SDS011;13082;52.374;4.946;2022-07-23T08:24:49;1.90;;;0.88;;
25091;SDS011;13082;52.374;4.946;2022-07-23T08:27:15;4.88;;;0.70;;
25091;SDS011;13082;52.374;4.946;2022-07-23T08:29:40;0.60;;;0.60;;
25091;SDS011;13082;52.374;4.946;2022-07-23T08:32:06;2.10;;;1.08;;
25091;SDS011;13082;52.374;4.946;2022-07-23T08:34:31;3.00;;;1.00;;
25091;SDS011;13082;52.374;4.946;2022-07-23T08:36:57;1.42;;;0.93;;
25091;SDS011;13082;52.374;4.946;2022-07-23T08:39:22;3.10;;;1.02;;
25091;SDS011;13082;52.374;4.946;2022-07-23T08:41:48;1.30;;;0.80;;
25091;SDS011;13082;52.374;4.946;2022-07-23T08:44:15;0.75;;;0.75;;
25091;SDS011;13082;52.374;4.946;2022-07-23T08:46:42;2.45;;;1.10;;
25091;SDS011;13082;52.374;4.946;2022-07-23T08:49:09;4.18;;;0.98;;
25091;SDS011;13082;52.374;4.946;2022-07-23T08:51:35;2.47;;;0.80;;
25091;SDS011;13082;52.374;4.946;2022-07-23T08:54:01;2.10;;;1.45;;
25091;SDS011;13082;52.374;4.946;2022-07-23T08:56:26;1.00;;;0.90;;
25091;SDS011;13082;52.374;4.946;2022-07-23T08:58:55;2.03;;;1.10;;
25091;SDS011;13082;52.374;4.946;2022-07-23T09:01:20;0.70;;;0.70;;
25091;SDS011;13082;52.374;4.946;2022-07-23T09:03:46;1.10;;;0.93;;
25091;SDS011;13082;52.374;4.946;2022-07-23T09:06:12;2.83;;;0.95;;
25091;SDS011;13082;52.374;4.946;2022-07-23T09:08:38;0.80;;;0.80;;
25091;SDS011;13082;52.374;4.946;2022-07-23T09:11:06;2.70;;;1.23;;
25091;SDS011;13082;52.374;4.946;2022-07-23T09:13:46;1.10;;;1.00;;
25091;SDS011;13082;52.374;4.946;2022-07-23T09:18:47;1.58;;;1.02;;
25091;SDS011;13082;52.374;4.946;2022-07-23T09:21:31;1.10;;;1.00;;
25091;SDS011;13082;52.374;4.946;2022-07-23T09:26:36;5.38;;;1.25;;
25091;SDS011;13082;52.374;4.946;2022-07-23T09:29:12;1.42;;;1.17;;
25091;SDS011;13082;52.374;4.946;2022-07-23T09:31:47;2.25;;;1.10;;
25091;SDS011;13082;52.374;4.946;2022-07-23T09:34:21;2.10;;;1.02;;
25091;SDS011;13082;52.374;4.946;2022-07-23T09:36:48;1.20;;;1.10;;
25091;SDS011;13082;52.374;4.946;2022-07-23T09:39:21;2.45;;;1.10;;
25091;SDS011;13082;52.374;4.946;2022-07-23T09:41:56;2.50;;;1.10;;
25091;SDS011;13082;52.374;4.946;2022-07-23T09:44:22;1.48;;;1.17;;
25091;SDS011;13082;52.374;4.946;2022-07-23T09:46:48;1.33;;;1.23;;
25091;SDS011;13082;52.374;4.946;2022-07-23T09:54:22;1.75;;;1.27;;
25091;SDS011;13082;52.374;4.946;2022-07-23T09:56:49;2.45;;;1.08;;
25091;SDS011;13082;52.374;4.946;2022-07-23T09:59:16;3.00;;;1.20;;
25091;SDS011;13082;52.374;4.946;2022-07-23T10:01:43;1.45;;;1.00;;
25091;SDS011;13082;52.374;4.946;2022-07-23T10:04:13;2.08;;;1.17;;
25091;SDS011;13082;52.374;4.946;2022-07-23T10:06:39;2.30;;;1.10;;
25091;SDS011;13082;52.374;4.946;2022-07-23T10:09:08;4.70;;;1.13;;
25091;SDS011;13082;52.374;4.946;2022-07-23T10:11:37;1.60;;;0.93;;
25091;SDS011;13082;52.374;4.946;2022-07-23T10:14:03;1.42;;;1.20;;
25091;SDS011;13082;52.374;4.946;2022-07-23T10:16:30;1.15;;;1.08;;
25091;SDS011;13082;52.374;4.946;2022-07-23T10:18:56;2.15;;;1.20;;
25091;SDS011;13082;52.374;4.946;2022-07-23T10:21:27;1.15;;;0.95;;
25091;SDS011;13082;52.374;4.946;2022-07-23T10:26:58;2.17;;;1.35;;
25091;SDS011;13082;52.374;4.946;2022-07-23T10:29:58;1.05;;;0.90;;
25091;SDS011;13082;52.374;4.946;2022-07-23T10:35:31;2.15;;;1.05;;
25091;SDS011;13082;52.374;4.946;2022-07-23T10:40:58;1.60;;;1.10;;
25091;SDS011;13082;52.374;4.946;2022-07-23T10:43:24;1.10;;;1.00;;
25091;SDS011;13082;52.374;4.946;2022-07-23T10:45:50;3.00;;;1.10;;
25091;SDS011;13082;52.374;4.946;2022-07-23T10:48:20;1.00;;;1.00;;
25091;SDS011;13082;52.374;4.946;2022-07-23T10:56:17;3.05;;;1.70;;
25091;SDS011;13082;52.374;4.946;2022-07-23T10:59:04;2.85;;;1.40;;
25091;SDS011;13082;52.374;4.946;2022-07-23T11:01:33;2.53;;;1.63;;
25091;SDS011;13082;52.374;4.946;2022-07-23T11:04:03;2.13;;;1.23;;
25091;SDS011;13082;52.374;4.946;2022-07-23T11:09:23;2.70;;;1.95;;
25091;SDS011;13082;52.374;4.946;2022-07-23T11:17:31;4.15;;;1.58;;
25091;SDS011;13082;52.374;4.946;2022-07-23T11:22:46;1.58;;;1.48;;
25091;SDS011;13082;52.374;4.946;2022-07-23T11:25:28;4.72;;;1.80;;
25091;SDS011;13082;52.374;4.946;2022-07-23T11:30:53;2.78;;;1.40;;
25091;SDS011;13082;52.374;4.946;2022-07-23T11:33:20;3.38;;;1.23;;
25091;SDS011;13082;52.374;4.946;2022-07-23T11:35:48;1.90;;;1.27;;
25091;SDS011;13082;52.374;4.946;2022-07-23T11:38:24;2.10;;;1.65;;
25091;SDS011;13082;52.374;4.946;2022-07-23T11:40:50;3.28;;;1.67;;
25091;SDS011;13082;52.374;4.946;2022-07-23T11:43:19;2.75;;;1.40;;
25091;SDS011;13082;52.374;4.946;2022-07-23T11:45:47;2.78;;;1.50;;
25091;SDS011;13082;52.374;4.946;2022-07-23T11:48:19;2.50;;;1.48;;
25091;SDS011;13082;52.374;4.946;2022-07-23T11:50:46;1.88;;;1.55;;
25091;SDS011;13082;52.374;4.946;2022-07-23T11:53:25;3.90;;;2.35;;
25091;SDS011;13082;52.374;4.946;2022-07-23T11:56:05;1.48;;;1.35;;
25091;SDS011;13082;52.374;4.946;2022-07-23T11:58:32;2.97;;;1.80;;
25091;SDS011;13082;52.374;4.946;2022-07-23T12:00:58;3.22;;;1.60;;
25091;SDS011;13082;52.374;4.946;2022-07-23T12:03:23;2.85;;;1.90;;
25091;SDS011;13082;52.374;4.946;2022-07-23T12:05:49;2.70;;;1.58;;
25091;SDS011;13082;52.374;4.946;2022-07-23T12:08:20;1.95;;;1.75;;
25091;SDS011;13082;52.374;4.946;2022-07-23T12:10:46;1.70;;;1.60;;
25091;SDS011;13082;52.374;4.946;2022-07-23T12:13:12;1.73;;;1.63;;
25091;SDS011;13082;52.374;4.946;2022-07-23T12:15:44;4.20;;;1.88;;
25091;SDS011;13082;52.374;4.946;2022-07-23T12:18:19;2.17;;;1.98;;
25091;SDS011;13082;52.374;4.946;2022-07-23T12:20:49;4.53;;;1.90;;
25091;SDS011;13082;52.374;4.946;2022-07-23T12:23:24;4.70;;;2.30;;
25091;SDS011;13082;52.374;4.946;2022-07-23T12:25:51;2.78;;;1.90;;
25091;SDS011;13082;52.374;4.946;2022-07-23T12:28:30;2.40;;;1.80;;
25091;SDS011;13082;52.374;4.946;2022-07-23T12:31:02;2.55;;;1.90;;
25091;SDS011;13082;52.374;4.946;2022-07-23T12:33:29;2.40;;;1.60;;
25091;SDS011;13082;52.374;4.946;2022-07-23T12:35:55;3.65;;;1.75;;
25091;SDS011;13082;52.374;4.946;2022-07-23T12:38:24;2.60;;;2.08;;
25091;SDS011;13082;52.374;4.946;2022-07-23T12:40:52;1.80;;;1.70;;
25091;SDS011;13082;52.374;4.946;2022-07-23T12:43:20;3.97;;;1.95;;
25091;SDS011;13082;52.374;4.946;2022-07-23T12:46:06;2.10;;;1.55;;
25091;SDS011;13082;52.374;4.946;2022-07-23T12:48:32;2.70;;;1.60;;
25091;SDS011;13082;52.374;4.946;2022-07-23T12:51:03;3.17;;;1.67;;
25091;SDS011;13082;52.374;4.946;2022-07-23T12:53:31;2.15;;;1.63;;
25091;SDS011;13082;52.374;4.946;2022-07-23T13:04:04;2.15;;;1.95;;
25091;SDS011;13082;52.374;4.946;2022-07-23T13:09:02;5.95;;;1.70;;
25091;SDS011;13082;52.374;4.946;2022-07-23T13:11:33;3.17;;;2.03;;
25091;SDS011;13082;52.374;4.946;2022-07-23T13:13:59;2.55;;;1.95;;
25091;SDS011;13082;52.374;4.946;2022-07-23T13:16:26;1.60;;;1.50;;
25091;SDS011;13082;52.374;4.946;2022-07-23T13:18:52;2.20;;;1.90;;
25091;SDS011;13082;52.374;4.946;2022-07-23T13:21:17;2.88;;;1.90;;
25091;SDS011;13082;52.374;4.946;2022-07-23T13:23:43;2.92;;;1.70;;
25091;SDS011;13082;52.374;4.946;2022-07-23T13:26:09;4.35;;;2.03;;
25091;SDS011;13082;52.374;4.946;2022-07-23T13:28:35;2.80;;;1.83;;
25091;SDS011;13082;52.374;4.946;2022-07-23T13:31:00;4.38;;;2.45;;
25091;SDS011;13082;52.374;4.946;2022-07-23T13:33:26;6.15;;;2.10;;
25091;SDS011;13082;52.374;4.946;2022-07-23T13:35:52;2.42;;;2.20;;
25091;SDS011;13082;52.374;4.946;2022-07-23T13:38:18;2.33;;;2.08;;
25091;SDS011;13082;52.374;4.946;2022-07-23T13:40:46;5.22;;;2.20;;
25091;SDS011;13082;52.374;4.946;2022-07-23T13:43:14;3.08;;;2.00;;
25091;SDS011;13082;52.374;4.946;2022-07-23T13:45:41;2.03;;;1.60;;
25091;SDS011;13082;52.374;4.946;2022-07-23T13:48:08;2.80;;;1.55;;
25091;SDS011;13082;52.374;4.946;2022-07-23T13:50:35;2.50;;;1.90;;
25091;SDS011;13082;52.374;4.946;2022-07-23T13:53:03;2.13;;;1.92;;
25091;SDS011;13082;52.374;4.946;2022-07-23T13:55:32;2.40;;;2.10;;
25091;SDS011;13082;52.374;4.946;2022-07-23T13:57:59;2.40;;;1.83;;
25091;SDS011;13082;52.374;4.946;2022-07-23T14:00:25;3.63;;;2.40;;
25091;SDS011;13082;52.374;4.946;2022-07-23T14:02:51;5.40;;;2.00;;
25091;SDS011;13082;52.374;4.946;2022-07-23T14:05:17;4.20;;;1.80;;
25091;SDS011;13082;52.374;4.946;2022-07-23T14:07:42;1.67;;;1.58;;
25091;SDS011;13082;52.374;4.946;2022-07-23T14:10:09;4.47;;;1.95;;
25091;SDS011;13082;52.374;4.946;2022-07-23T14:12:35;3.28;;;2.05;;
25091;SDS011;13082;52.374;4.946;2022-07-23T14:15:01;3.35;;;2.20;;
25091;SDS011;13082;52.374;4.946;2022-07-23T14:17:28;3.17;;;2.30;;
25091;SDS011;13082;52.374;4.946;2022-07-23T14:19:54;2.63;;;2.40;;
25091;SDS011;13082;52.374;4.946;2022-07-23T14:22:19;3.58;;;2.42;;
25091;SDS011;13082;52.374;4.946;2022-07-23T14:24:45;4.40;;;2.45;;
25091;SDS011;13082;52.374;4.946;2022-07-23T14:27:11;2.33;;;2.13;;
25091;SDS011;13082;52.374;4.946;2022-07-23T14:29:36;4.88;;;2.13;;
25091;SDS011;13082;52.374;4.946;2022-07-23T14:32:02;2.60;;;2.40;;
25091;SDS011;13082;52.374;4.946;2022-07-23T14:34:30;3.10;;;1.73;;
25091;SDS011;13082;52.374;4.946;2022-07-23T14:36:57;4.45;;;1.60;;
25091;SDS011;13082;52.374;4.946;2022-07-23T14:39:22;2.55;;;1.65;;
25091;SDS011;13082;52.374;4.946;2022-07-23T14:41:48;1.70;;;1.50;;
25091;SDS011;13082;52.374;4.946;2022-07-23T14:44:13;1.85;;;1.75;;
25091;SDS011;13082;52.374;4.946;2022-07-23T14:46:39;2.97;;;1.80;;
25091;SDS011;13082;52.374;4.946;2022-07-23T14:49:05;2.17;;;1.98;;
25091;SDS011;13082;52.374;4.946;2022-07-23T14:51:30;4.43;;;1.98;;
25091;SDS011;13082;52.374;4.946;2022-07-23T14:53:56;2.22;;;1.80;;
25091;SDS011;13082;52.374;4.946;2022-07-23T14:56:22;2.38;;;2.05;;
25091;SDS011;13082;52.374;4.946;2022-07-23T14:58:47;3.67;;;2.15;;
25091;SDS011;13082;52.374;4.946;2022-07-23T15:01:13;3.05;;;2.03;;
25091;SDS011;13082;52.374;4.946;2022-07-23T15:03:39;4.28;;;2.20;;
25091;SDS011;13082;52.374;4.946;2022-07-23T15:06:04;3.70;;;1.83;;
25091;SDS011;13082;52.374;4.946;2022-07-23T15:08:33;4.47;;;2.08;;
25091;SDS011;13082;52.374;4.946;2022-07-23T15:10:58;2.88;;;2.22;;
25091;SDS011;13082;52.374;4.946;2022-07-23T15:13:24;4.25;;;2.13;;
25091;SDS011;13082;52.374;4.946;2022-07-23T15:15:49;3.05;;;2.00;;
25091;SDS011;13082;52.374;4.946;2022-07-23T15:18:15;2.90;;;2.15;;
25091;SDS011;13082;52.374;4.946;2022-07-23T15:20:41;4.10;;;1.60;;
25091;SDS011;13082;52.374;4.946;2022-07-23T15:23:07;2.47;;;1.30;;
25091;SDS011;13082;52.374;4.946;2022-07-23T15:25:33;1.88;;;1.77;;
25091;SDS011;13082;52.374;4.946;2022-07-23T15:27:59;1.65;;;1.55;;
25091;SDS011;13082;52.374;4.946;2022-07-23T15:30:25;1.65;;;1.55;;
25091;SDS011;13082;52.374;4.946;2022-07-23T15:32:54;1.92;;;1.60;;
25091;SDS011;13082;52.374;4.946;2022-07-23T15:35:19;3.17;;;2.17;;